createdAt,value
2023-02-15T00:01:49.899Z,7.35
2023-02-15T00:04:20.343Z,7.47
2023-02-15T00:06:46.988Z,7.57
2023-02-15T00:09:14.258Z,7.62
2023-02-15T00:11:41.126Z,7.60
2023-02-15T00:14:10.704Z,7.67
2023-02-15T00:16:38.769Z,7.56
2023-02-15T00:19:06.120Z,7.60
2023-02-15T00:21:34.012Z,7.67
2023-02-15T00:24:02.597Z,7.68
2023-02-15T00:26:30.225Z,7.74
2023-02-15T00:28:59.482Z,7.75
2023-02-15T00:31:28.700Z,7.81
2023-02-15T00:33:56.223Z,7.87
2023-02-15T00:36:22.879Z,7.83
2023-02-15T00:38:49.648Z,7.92
2023-02-15T00:41:17.196Z,7.94
2023-02-15T00:43:43.837Z,7.92
2023-02-15T00:46:10.684Z,8.02
2023-02-15T00:48:39.956Z,8.00
2023-02-15T00:51:06.957Z,7.90
2023-02-15T00:53:33.828Z,7.97
2023-02-15T00:56:01.021Z,7.99
2023-02-15T00:58:27.889Z,7.95
2023-02-15T01:00:54.638Z,7.84
2023-02-15T01:03:23.804Z,7.86
2023-02-15T01:05:50.669Z,7.85
2023-02-15T01:08:17.489Z,7.77
2023-02-15T01:10:46.770Z,7.78
2023-02-15T01:13:14.680Z,7.79
2023-02-15T01:15:43.973Z,7.72
2023-02-15T01:18:11.692Z,7.59
2023-02-15T01:20:42.030Z,7.43
2023-02-15T01:23:09.756Z,7.45
2023-02-15T01:25:37.375Z,7.43
2023-02-15T01:28:04.493Z,7.37
2023-02-15T01:30:33.427Z,7.36
2023-02-15T01:33:01.651Z,7.36
2023-02-15T01:35:31.242Z,7.35
2023-02-15T01:37:57.902Z,7.36
2023-02-15T01:40:26.134Z,7.27
2023-02-15T01:42:54.323Z,7.36
2023-02-15T01:45:32.191Z,7.42
2023-02-15T01:48:07.205Z,7.18
2023-02-15T01:50:41.938Z,7.21
2023-02-15T01:53:33.289Z,7.13
2023-02-15T01:56:05.103Z,6.98
2023-02-15T01:58:34.777Z,7.07
2023-02-15T02:01:04.899Z,7.11
2023-02-15T02:03:50.511Z,7.11
2023-02-15T02:06:18.376Z,7.17
2023-02-15T02:08:45.627Z,7.24
2023-02-15T02:11:13.882Z,7.21
2023-02-15T02:13:42.624Z,7.22
2023-02-15T02:16:25.795Z,7.25
2023-02-15T02:19:20.977Z,7.18
2023-02-15T02:22:05.858Z,7.15
2023-02-15T02:24:48.258Z,7.06
2023-02-15T02:27:31.132Z,7.03
2023-02-15T02:30:25.355Z,7.12
2023-02-15T02:33:14.092Z,7.18
2023-02-15T02:36:03.843Z,7.10
2023-02-15T02:38:45.236Z,7.03
2023-02-15T02:41:23.675Z,7.08
2023-02-15T02:44:13.267Z,7.14
2023-02-15T02:46:39.922Z,7.07
2023-02-15T02:49:06.671Z,6.99
2023-02-15T02:51:33.451Z,6.94
2023-02-15T02:54:04.467Z,6.99
2023-02-15T02:56:48.412Z,7.03
2023-02-15T02:59:21.630Z,7.12
2023-02-15T03:01:54.235Z,7.03
2023-02-15T03:04:29.644Z,6.96
2023-02-15T03:07:03.747Z,6.88
2023-02-15T03:09:43.823Z,6.67
2023-02-15T03:12:28.288Z,6.62
2023-02-15T03:15:06.007Z,6.55
2023-02-15T03:17:34.802Z,6.58
2023-02-15T03:20:08.226Z,6.57
2023-02-15T03:22:40.424Z,6.68
2023-02-15T03:25:20.579Z,6.75
2023-02-15T03:27:52.191Z,6.75
2023-02-15T03:30:22.803Z,6.85
2023-02-15T03:32:51.836Z,6.91
2023-02-15T03:35:24.063Z,6.97
2023-02-15T03:38:02.598Z,7.13
2023-02-15T03:40:51.474Z,7.04
2023-02-15T03:43:39.879Z,7.07
2023-02-15T03:46:21.628Z,6.91
2023-02-15T03:48:54.185Z,6.89
2023-02-15T03:51:37.216Z,6.79
2023-02-15T03:54:44.881Z,6.71
2023-02-15T03:57:41.484Z,6.59
2023-02-15T04:00:41.076Z,6.40
2023-02-15T04:03:20.955Z,6.29
2023-02-15T04:05:47.641Z,6.31
2023-02-15T04:08:14.501Z,6.25
2023-02-15T04:10:53.212Z,6.36
2023-02-15T04:13:21.226Z,6.29
2023-02-15T04:16:07.046Z,6.20
2023-02-15T04:18:58.020Z,5.92
2023-02-15T04:21:45.011Z,6.14
2023-02-15T04:24:31.325Z,6.05
2023-02-15T04:26:58.999Z,6.15
2023-02-15T04:29:26.510Z,6.23
2023-02-15T04:31:55.060Z,6.25
2023-02-15T04:34:22.131Z,6.25
2023-02-15T04:36:48.844Z,6.21
2023-02-15T04:39:16.324Z,6.22
2023-02-15T04:41:43.475Z,6.27
2023-02-15T04:44:10.540Z,6.27
2023-02-15T04:46:37.923Z,6.31
2023-02-15T04:49:05.000Z,6.32
2023-02-15T04:51:31.744Z,6.41
2023-02-15T04:53:58.420Z,6.40
2023-02-15T04:56:25.230Z,6.45
2023-02-15T04:58:51.953Z,6.37
2023-02-15T05:01:18.830Z,6.32
2023-02-15T05:03:45.532Z,6.18
2023-02-15T05:06:12.220Z,6.13
2023-02-15T05:08:38.845Z,6.28
2023-02-15T05:11:05.492Z,6.01
2023-02-15T05:13:32.192Z,6.05
2023-02-15T05:15:58.949Z,6.10
2023-02-15T05:18:25.810Z,6.06
2023-02-15T05:20:52.555Z,6.11
2023-02-15T05:23:19.285Z,6.19
2023-02-15T05:26:08.785Z,6.27
2023-02-15T05:28:36.809Z,6.22
2023-02-15T05:31:08.445Z,6.32
2023-02-15T05:33:35.364Z,6.21
2023-02-15T05:36:03.337Z,6.12
2023-02-15T05:38:30.467Z,5.91
2023-02-15T05:40:57.724Z,6.01
2023-02-15T05:43:25.286Z,5.90
2023-02-15T05:45:53.903Z,5.89
2023-02-15T05:48:23.224Z,5.97
2023-02-15T05:51:04.768Z,6.08
2023-02-15T05:53:33.770Z,6.17
2023-02-15T05:56:01.624Z,6.14
2023-02-15T05:58:37.766Z,6.06
2023-02-15T06:01:18.427Z,6.16
2023-02-15T06:03:46.527Z,6.20
2023-02-15T06:06:13.527Z,6.27
2023-02-15T06:08:40.373Z,6.23
2023-02-15T06:11:07.853Z,6.18
2023-02-15T06:13:38.330Z,6.11
2023-02-15T06:16:06.589Z,5.94
2023-02-15T06:18:33.602Z,5.95
2023-02-15T06:21:00.491Z,6.08
2023-02-15T06:23:27.196Z,6.11
2023-02-15T06:25:54.260Z,6.10
2023-02-15T06:28:21.094Z,6.01
2023-02-15T06:30:47.957Z,5.92
2023-02-15T06:33:14.726Z,5.77
2023-02-15T06:35:41.489Z,5.88
2023-02-15T06:38:08.661Z,5.69
2023-02-15T06:40:35.339Z,5.66
2023-02-15T06:43:01.993Z,5.65
2023-02-15T06:45:28.760Z,5.74
2023-02-15T06:47:55.433Z,5.72
2023-02-15T06:50:22.274Z,5.71
2023-02-15T06:52:49.018Z,5.74
2023-02-15T06:55:15.810Z,5.67
2023-02-15T06:57:42.555Z,5.40
2023-02-15T07:00:09.876Z,5.53
2023-02-15T07:02:36.520Z,5.24
2023-02-15T07:05:05.102Z,5.42
2023-02-15T07:07:31.767Z,5.60
2023-02-15T07:09:58.430Z,5.63
2023-02-15T07:12:43.531Z,5.66
2023-02-15T07:15:16.150Z,5.85
2023-02-15T07:17:43.634Z,5.93
2023-02-15T07:20:12.053Z,5.93
2023-02-15T07:22:39.110Z,5.77
2023-02-15T07:25:08.220Z,5.66
2023-02-15T07:27:35.186Z,5.62
2023-02-15T07:30:02.259Z,5.63
2023-02-15T07:32:33.117Z,5.78
2023-02-15T07:35:00.815Z,5.77
2023-02-15T07:37:28.667Z,5.86
2023-02-15T07:39:55.367Z,6.00
2023-02-15T07:42:22.989Z,5.92
2023-02-15T07:44:50.010Z,5.97
2023-02-15T07:47:16.745Z,6.05
2023-02-15T07:49:43.431Z,5.96
2023-02-15T07:52:10.219Z,5.97
2023-02-15T07:54:36.849Z,6.13
2023-02-15T07:57:03.596Z,6.07
2023-02-15T07:59:30.269Z,6.22
2023-02-15T08:01:58.105Z,6.15
2023-02-15T08:04:25.104Z,6.22
2023-02-15T08:06:55.099Z,6.13
2023-02-15T08:09:22.634Z,6.31
2023-02-15T08:11:49.528Z,6.39
2023-02-15T08:14:21.335Z,6.27
2023-02-15T08:16:48.241Z,6.36
2023-02-15T08:19:25.558Z,6.21
2023-02-15T08:21:54.821Z,6.40
2023-02-15T08:24:23.892Z,6.26
2023-02-15T08:26:51.756Z,6.26
2023-02-15T08:29:21.071Z,5.99
2023-02-15T08:31:48.796Z,6.19
2023-02-15T08:34:18.570Z,6.30
2023-02-15T08:36:48.618Z,6.23
2023-02-15T08:39:16.817Z,6.33
2023-02-15T08:41:46.341Z,6.47
2023-02-15T08:44:13.679Z,6.31
2023-02-15T08:46:42.922Z,6.37
2023-02-15T08:49:11.096Z,6.57
2023-02-15T08:51:39.568Z,6.76
2023-02-15T08:54:10.276Z,6.86
2023-02-15T08:56:39.233Z,6.97
2023-02-15T08:59:07.693Z,6.99
2023-02-15T09:01:35.857Z,7.05
2023-02-15T09:04:09.589Z,7.33
2023-02-15T09:06:40.659Z,7.57
2023-02-15T09:09:08.682Z,7.55
2023-02-15T09:11:38.666Z,7.97
2023-02-15T09:14:10.006Z,8.60
2023-02-15T09:16:38.639Z,9.38
2023-02-15T09:19:06.326Z,10.52
2023-02-15T09:21:36.013Z,11.56
2023-02-15T09:24:08.969Z,12.03
2023-02-15T09:26:38.248Z,12.57
2023-02-15T09:29:05.072Z,13.09
2023-02-15T09:31:45.218Z,14.43
2023-02-15T09:34:14.332Z,16.67
2023-02-15T09:36:42.182Z,19.64
2023-02-15T09:39:13.629Z,22.07
2023-02-15T09:41:52.678Z,23.52
2023-02-15T09:44:40.673Z,23.44
2023-02-15T09:47:18.934Z,23.00
2023-02-15T09:50:20.862Z,20.04
2023-02-15T09:53:00.121Z,17.29
2023-02-15T09:55:48.724Z,17.03
2023-02-15T09:58:33.410Z,16.84
2023-02-15T10:01:22.687Z,17.03
2023-02-15T10:04:23.555Z,17.02
2023-02-15T10:07:05.267Z,18.25
2023-02-15T10:09:32.255Z,19.62
2023-02-15T10:12:30.201Z,21.51
2023-02-15T10:14:59.554Z,23.09
2023-02-15T10:17:45.233Z,23.68
2023-02-15T10:20:37.188Z,25.63
2023-02-15T10:23:12.482Z,26.99
2023-02-15T10:25:58.917Z,27.57
2023-02-15T10:28:40.846Z,27.71
2023-02-15T10:31:22.106Z,27.70
2023-02-15T10:33:56.230Z,27.30
2023-02-15T10:36:55.274Z,29.63
2023-02-15T10:39:43.712Z,28.50
2023-02-15T10:42:53.097Z,28.91
2023-02-15T10:45:41.152Z,28.42
2023-02-15T10:48:23.214Z,28.70
2023-02-15T10:50:53.652Z,29.03
2023-02-15T10:53:27.354Z,29.86
2023-02-15T10:56:08.191Z,29.06
2023-02-15T10:58:46.823Z,29.64
2023-02-15T11:01:23.599Z,29.53
2023-02-15T11:04:08.885Z,30.74
2023-02-15T11:06:40.629Z,30.61
2023-02-15T11:09:13.967Z,31.99
2023-02-15T11:11:44.650Z,32.13
2023-02-15T11:14:14.099Z,31.84
2023-02-15T11:16:47.365Z,31.82
2023-02-15T11:19:17.050Z,30.93
2023-02-15T11:21:50.774Z,31.03
2023-02-15T11:24:23.478Z,31.29
2023-02-15T11:27:13.464Z,30.13
2023-02-15T11:29:49.948Z,29.88
2023-02-15T11:32:30.712Z,29.99
2023-02-15T11:35:06.349Z,30.77
2023-02-15T11:37:54.551Z,31.88
2023-02-15T11:40:25.753Z,32.74
2023-02-15T11:42:57.003Z,33.17
2023-02-15T11:45:32.387Z,32.79
2023-02-15T11:48:00.382Z,33.72
2023-02-15T11:50:31.695Z,33.03
2023-02-15T11:53:04.690Z,32.81
2023-02-15T11:55:31.982Z,33.13
2023-02-15T11:58:05.680Z,33.18
2023-02-15T12:00:40.290Z,33.95
2023-02-15T12:03:21.417Z,33.92
2023-02-15T12:05:54.407Z,32.79
2023-02-15T12:08:22.654Z,33.07
2023-02-15T12:11:03.997Z,31.74
2023-02-15T12:13:31.138Z,32.52
2023-02-15T12:16:00.353Z,31.45
2023-02-15T12:18:45.216Z,32.09
2023-02-15T12:21:29.395Z,29.73
2023-02-15T12:24:05.048Z,29.31
2023-02-15T12:26:35.471Z,30.01
2023-02-15T12:29:13.652Z,29.02
2023-02-15T12:31:44.588Z,27.34
2023-02-15T12:34:40.542Z,26.77
2023-02-15T12:37:29.406Z,25.88
2023-02-15T12:39:58.774Z,25.29
2023-02-15T12:42:27.066Z,23.74
2023-02-15T12:44:53.835Z,22.51
2023-02-15T12:47:21.526Z,22.86
2023-02-15T12:50:12.609Z,22.05
2023-02-15T12:52:40.162Z,21.96
2023-02-15T12:55:33.055Z,21.84
2023-02-15T12:58:21.487Z,21.51
2023-02-15T13:00:48.440Z,21.22
2023-02-15T13:03:24.924Z,20.47
2023-02-15T13:05:57.675Z,20.69
2023-02-15T13:08:53.806Z,20.74
2023-02-15T13:11:25.749Z,20.71
2023-02-15T13:13:56.902Z,20.33
2023-02-15T13:16:36.427Z,19.87
2023-02-15T13:19:11.315Z,20.06
2023-02-15T13:21:41.104Z,20.03
2023-02-15T13:24:25.169Z,20.17
2023-02-15T13:27:03.513Z,20.20
2023-02-15T13:29:40.815Z,19.95
2023-02-15T13:32:26.896Z,19.71
2023-02-15T13:34:57.981Z,19.62
2023-02-15T13:37:48.117Z,19.81
2023-02-15T13:40:33.830Z,19.91
2023-02-15T13:43:03.135Z,19.81
2023-02-15T13:45:54.401Z,19.77
2023-02-15T13:48:50.849Z,19.60
2023-02-15T13:51:39.006Z,19.49
2023-02-15T13:54:30.360Z,19.41
2023-02-15T13:57:15.751Z,19.41
2023-02-15T14:00:05.630Z,19.42
2023-02-15T14:02:55.317Z,19.34
2023-02-15T14:05:23.587Z,19.37
2023-02-15T14:08:09.800Z,19.27
2023-02-15T14:11:09.342Z,19.23
2023-02-15T14:14:11.526Z,19.42
2023-02-15T14:17:16.155Z,19.36
2023-02-15T14:19:52.741Z,19.40
2023-02-15T14:22:25.997Z,19.33
2023-02-15T14:25:06.367Z,19.33
2023-02-15T14:27:53.874Z,19.02
2023-02-15T14:30:27.602Z,19.11
2023-02-15T14:33:00.680Z,18.97
2023-02-15T14:35:30.162Z,19.04
2023-02-15T14:38:13.055Z,18.90
2023-02-15T14:41:05.021Z,18.79
2023-02-15T14:43:57.069Z,18.65
2023-02-15T14:46:37.604Z,18.49
2023-02-15T14:49:15.098Z,18.48
2023-02-15T14:51:44.808Z,18.41
2023-02-15T14:54:18.281Z,18.59
2023-02-15T14:56:46.037Z,18.70
2023-02-15T14:59:12.651Z,18.69
2023-02-15T15:01:40.719Z,18.77
2023-02-15T15:04:12.758Z,18.71
2023-02-15T15:06:43.168Z,18.58
2023-02-15T15:09:43.181Z,18.64
2023-02-15T15:12:21.823Z,18.54
2023-02-15T15:14:51.723Z,18.50
2023-02-15T15:17:33.508Z,18.40
2023-02-15T15:20:08.352Z,18.35
2023-02-15T15:22:35.929Z,18.25
2023-02-15T15:25:05.698Z,18.21
2023-02-15T15:27:55.052Z,18.20
2023-02-15T15:30:21.872Z,18.10
2023-02-15T15:32:54.689Z,17.98
2023-02-15T15:35:33.389Z,17.91
2023-02-15T15:38:22.380Z,17.86
2023-02-15T15:41:16.190Z,17.89
2023-02-15T15:44:01.266Z,17.82
2023-02-15T15:46:42.954Z,17.71
2023-02-15T15:49:18.809Z,17.63
2023-02-15T15:51:46.897Z,17.53
2023-02-15T15:54:16.485Z,17.42
2023-02-15T15:56:48.059Z,17.30
2023-02-15T15:59:21.130Z,17.23
2023-02-15T16:01:48.945Z,17.15
2023-02-15T16:04:26.311Z,17.06
2023-02-15T16:06:53.441Z,16.94
2023-02-15T16:09:21.616Z,16.87
2023-02-15T16:11:51.509Z,16.76
2023-02-15T16:14:32.238Z,16.72
2023-02-15T16:17:02.002Z,16.61
2023-02-15T16:19:33.406Z,16.58
2023-02-15T16:22:02.020Z,16.47
2023-02-15T16:24:47.062Z,16.47
2023-02-15T16:27:44.545Z,16.31
2023-02-15T16:30:39.455Z,16.21
2023-02-15T16:33:15.601Z,16.15
2023-02-15T16:35:57.210Z,16.06
2023-02-15T16:38:48.358Z,16.02
2023-02-15T16:41:18.367Z,15.93
2023-02-15T16:43:48.497Z,15.77
2023-02-15T16:46:29.507Z,15.67
2023-02-15T16:49:00.033Z,15.58
2023-02-15T16:51:29.505Z,15.51
2023-02-15T16:53:58.535Z,15.46
2023-02-15T16:56:29.373Z,15.33
2023-02-15T16:58:57.473Z,15.29
2023-02-15T17:01:27.239Z,15.22
2023-02-15T17:04:13.308Z,15.13
2023-02-15T17:06:40.027Z,15.05
2023-02-15T17:09:19.260Z,14.97
2023-02-15T17:11:46.169Z,14.89
2023-02-15T17:14:18.946Z,14.73
2023-02-15T17:16:50.687Z,14.57
2023-02-15T17:19:25.742Z,14.42
2023-02-15T17:21:56.624Z,14.32
2023-02-15T17:24:33.387Z,14.29
2023-02-15T17:27:06.361Z,14.27
2023-02-15T17:29:33.770Z,14.22
2023-02-15T17:32:02.727Z,14.07
2023-02-15T17:34:51.322Z,14.00
2023-02-15T17:37:46.625Z,13.94
2023-02-15T17:40:19.195Z,13.90
2023-02-15T17:42:45.919Z,13.85
2023-02-15T17:45:15.099Z,13.90
2023-02-15T17:47:42.550Z,13.74
2023-02-15T17:50:19.490Z,13.71
2023-02-15T17:52:46.253Z,13.73
2023-02-15T17:55:37.756Z,13.65
2023-02-15T17:58:12.925Z,13.71
2023-02-15T18:01:02.438Z,13.74
2023-02-15T18:03:58.751Z,13.63
2023-02-15T18:06:44.550Z,13.56
2023-02-15T18:09:32.284Z,13.53
2023-02-15T18:11:59.036Z,13.52
2023-02-15T18:14:26.462Z,13.52
2023-02-15T18:16:54.744Z,13.53
2023-02-15T18:19:24.305Z,13.41
2023-02-15T18:21:52.829Z,13.29
2023-02-15T18:24:24.193Z,13.26
2023-02-15T18:26:51.990Z,13.20
2023-02-15T18:29:18.932Z,13.17
2023-02-15T18:31:51.326Z,13.14
2023-02-15T18:34:24.033Z,13.12
2023-02-15T18:36:51.772Z,13.10
2023-02-15T18:39:36.317Z,13.01
2023-02-15T18:42:04.848Z,12.91
2023-02-15T18:44:31.658Z,12.73
2023-02-15T18:46:58.272Z,12.61
2023-02-15T18:49:24.970Z,12.55
2023-02-15T18:51:53.131Z,12.51
2023-02-15T18:54:22.846Z,12.46
2023-02-15T18:56:55.471Z,12.36
2023-02-15T18:59:24.591Z,12.24
2023-02-15T19:01:52.301Z,12.19
2023-02-15T19:04:18.987Z,12.19
2023-02-15T19:06:49.059Z,12.17
2023-02-15T19:09:19.902Z,12.15
2023-02-15T19:11:51.736Z,12.13
2023-02-15T19:14:32.540Z,12.11
2023-02-15T19:17:00.606Z,12.05
2023-02-15T19:19:27.933Z,12.01
2023-02-15T19:21:55.394Z,11.94
2023-02-15T19:24:33.576Z,11.79
2023-02-15T19:27:00.395Z,11.72
2023-02-15T19:29:30.311Z,11.65
2023-02-15T19:31:58.102Z,11.60
2023-02-15T19:34:24.991Z,11.54
2023-02-15T19:36:54.792Z,11.55
2023-02-15T19:39:26.111Z,11.49
2023-02-15T19:41:53.232Z,11.40
2023-02-15T19:44:20.626Z,11.36
2023-02-15T19:46:47.417Z,11.33
2023-02-15T19:49:14.078Z,11.34
2023-02-15T19:51:41.146Z,11.34
2023-02-15T19:54:31.532Z,11.29
2023-02-15T19:56:58.303Z,11.28
2023-02-15T19:59:30.938Z,11.36
2023-02-15T20:01:58.212Z,11.32
2023-02-15T20:04:26.022Z,11.24
2023-02-15T20:06:55.774Z,11.26
2023-02-15T20:09:26.505Z,11.26
2023-02-15T20:11:53.728Z,11.18
2023-02-15T20:14:21.033Z,11.17
2023-02-15T20:16:47.876Z,11.32
2023-02-15T20:19:14.608Z,11.39
2023-02-15T20:21:43.818Z,11.53
2023-02-15T20:24:19.290Z,11.69
2023-02-15T20:26:46.333Z,11.71
2023-02-15T20:29:15.200Z,11.67
2023-02-15T20:31:43.096Z,11.59
2023-02-15T20:34:10.655Z,11.40
2023-02-15T20:36:38.747Z,11.28
2023-02-15T20:39:16.585Z,11.18
2023-02-15T20:41:47.730Z,11.04
2023-02-15T20:44:20.684Z,10.87
2023-02-15T20:46:49.199Z,10.71
2023-02-15T20:49:16.161Z,10.61
2023-02-15T20:51:44.368Z,10.60
2023-02-15T20:54:17.774Z,10.67
2023-02-15T20:56:45.763Z,10.66
2023-02-15T20:59:24.740Z,10.56
2023-02-15T21:01:55.428Z,10.45
2023-02-15T21:04:27.233Z,10.29
2023-02-15T21:06:53.958Z,10.23
2023-02-15T21:09:20.571Z,10.23
2023-02-15T21:11:50.252Z,10.17
2023-02-15T21:14:19.487Z,10.28
2023-02-15T21:16:48.360Z,10.38
2023-02-15T21:19:23.586Z,10.32
2023-02-15T21:21:53.225Z,10.26
2023-02-15T21:24:29.036Z,10.00
2023-02-15T21:26:58.273Z,9.71
2023-02-15T21:29:28.013Z,9.76
2023-02-15T21:31:55.200Z,9.56
2023-02-15T21:34:22.200Z,9.51
2023-02-15T21:36:50.594Z,9.35
2023-02-15T21:39:25.913Z,9.41
2023-02-15T21:42:13.207Z,9.39
2023-02-15T21:44:59.194Z,9.47
2023-02-15T21:47:49.030Z,9.53
2023-02-15T21:50:42.645Z,9.55
2023-02-15T21:53:21.172Z,9.49
2023-02-15T21:55:48.667Z,9.50
2023-02-15T21:58:21.070Z,9.48
2023-02-15T22:00:48.389Z,9.34
2023-02-15T22:03:15.206Z,9.42
2023-02-15T22:05:41.871Z,9.43
2023-02-15T22:08:13.317Z,9.46
2023-02-15T22:10:41.237Z,9.47
2023-02-15T22:13:17.235Z,9.49
2023-02-15T22:15:47.084Z,9.41
2023-02-15T22:18:33.849Z,9.47
2023-02-15T22:21:01.991Z,9.57
2023-02-15T22:23:29.080Z,9.60
2023-02-15T22:26:05.162Z,9.56
2023-02-15T22:28:34.594Z,9.57
2023-02-15T22:31:01.866Z,9.60
2023-02-15T22:33:31.643Z,9.59
2023-02-15T22:35:59.249Z,9.56
2023-02-15T22:38:26.248Z,9.65
2023-02-15T22:40:56.815Z,9.69
2023-02-15T22:43:29.413Z,9.70
2023-02-15T22:46:01.825Z,9.78
2023-02-15T22:48:28.755Z,9.86
2023-02-15T22:50:55.412Z,9.92
2023-02-15T22:53:22.650Z,9.91
2023-02-15T22:55:49.891Z,9.87
2023-02-15T22:58:20.617Z,9.90
2023-02-15T23:00:47.447Z,9.84
2023-02-15T23:03:16.833Z,9.63
2023-02-15T23:05:43.854Z,9.36
2023-02-15T23:08:11.385Z,9.28
2023-02-15T23:10:39.319Z,9.21
2023-02-15T23:13:25.970Z,9.21
2023-02-15T23:15:58.727Z,9.21
2023-02-15T23:18:29.503Z,9.22
2023-02-15T23:21:10.106Z,9.22
2023-02-15T23:23:39.981Z,9.18
2023-02-15T23:26:22.905Z,9.13
2023-02-15T23:28:50.446Z,9.09
2023-02-15T23:31:21.857Z,8.99
2023-02-15T23:33:48.986Z,8.83
2023-02-15T23:36:28.091Z,8.70
2023-02-15T23:38:56.609Z,8.60
2023-02-15T23:41:27.450Z,8.55
2023-02-15T23:43:58.137Z,8.45
2023-02-15T23:46:26.759Z,8.38
2023-02-15T23:48:54.801Z,8.39
2023-02-15T23:51:27.345Z,8.37
2023-02-15T23:53:53.987Z,8.27
2023-02-15T23:56:20.673Z,8.27
2023-02-15T23:58:48.141Z,8.21
